Time;durP1;ratioP1;P1;durP2;ratioP2;P2;SDS_P1;SDS_P2;PMS_P1;PMS_P2;Temp;Humidity;BMP_temperature;BMP_pressure;BME280_temperature;BME280_humidity;BME280_pressure;Samples;Min_cycle;Max_cycle;Signal;HPM_P1;HPM_P2
2024/01/08 00:01:35;;;;;;;;;;;;;;;-3.42;100.00;96765.13;5083820;28;19940;-90
2024/01/08 00:04:01;;;;;;;;;;;;;;;-3.45;100.00;96755.13;5085718;28;19941;-69
2024/01/08 00:06:27;;;;;;;;;;;;;;;-3.45;100.00;96758.50;5088790;28;19949;-90
2024/01/08 00:08:53;;;;;;;;;;;;;;;-3.50;100.00;96763.19;5087647;28;19959;-85
2024/01/08 00:11:18;;;;;;;;;;;;;;;-3.49;100.00;96757.09;5086797;28;19947;-87
2024/01/08 00:13:44;;;;;;;;;;;;;;;-3.49;100.00;96760.47;5087904;28;20256;-87
2024/01/08 00:16:10;;;;;;;;;;;;;;;-3.46;100.00;96764.56;5087680;28;19944;-89
2024/01/08 00:18:36;;;;;;;;;;;;;;;-3.43;100.00;96753.25;5087618;28;19955;-86
2024/01/08 00:21:02;;;;;;;;;;;;;;;-3.40;100.00;96752.97;5088166;28;19942;-69
2024/01/08 00:23:34;;;;;;;;;;;;;;;-3.38;100.00;96758.81;5087843;28;19946;-69
2024/01/08 00:26:00;;;;;;;;;;;;;;;-3.35;100.00;96759.38;5087161;28;19936;-70
2024/01/08 00:28:26;;;;;;;;;;;;;;;-3.36;100.00;96762.91;5087485;28;19943;-68
2024/01/08 00:30:52;;;;;;;;;;;;;;;-3.37;100.00;96752.75;5087365;28;19931;-69
2024/01/08 00:33:18;;;;;;;;;;;;;;;-3.35;100.00;96754.25;5087840;28;19957;-69
2024/01/08 00:35:44;;;;;;;;;;;;;;;-3.34;100.00;96761.03;5087279;28;19946;-69
2024/01/08 00:38:10;;;;;;;;;;;;;;;-3.36;100.00;96762.06;5087164;28;19950;-69
2024/01/08 00:40:36;;;;;;;;;;;;;;;-3.36;100.00;96752.63;5086448;28;19936;-76
2024/01/08 00:43:02;;;;;;;;;;;;;;;-3.37;100.00;96756.13;5087767;28;19958;-70
2024/01/08 00:45:28;;;;;;;;;;;;;;;-3.37;100.00;96763.00;5087103;28;19939;-69
2024/01/08 00:47:53;;;;;;;;;;;;;;;-3.35;100.00;96766.25;5087581;28;20211;-68
2024/01/08 00:50:20;;;;;;;;;;;;;;;-3.37;100.00;96757.88;5087035;28;20010;-69
2024/01/08 00:52:46;;;;;;;;;;;;;;;-3.39;100.00;96754.63;5087023;28;20251;-68
2024/01/08 00:55:11;;;;;;;;;;;;;;;-3.40;100.00;96760.69;5087728;28;19941;-68
2024/01/08 00:57:38;;;;;;;;;;;;;;;-3.39;100.00;96757.19;5085754;28;19988;-71
2024/01/08 01:00:04;;;;;;;;;;;;;;;-3.40;100.00;96761.50;5087632;28;19934;-73
2024/01/08 01:02:30;;;;;;;;;;;;;;;-3.40;100.00;96761.50;5086838;28;19941;-73
2024/01/08 01:04:56;;;;;;;;;;;;;;;-3.42;100.00;96760.81;5086797;28;20269;-72
2024/01/08 01:07:22;;;;;;;;;;;;;;;-3.41;100.00;96756.50;5087215;28;19976;-73
2024/01/08 01:09:48;;;;;;;;;;;;;;;-3.44;100.00;96746.47;5086451;28;19976;-72
2024/01/08 01:12:14;;;;;;;;;;;;;;;-3.45;100.00;96755.94;5086934;28;19944;-73
2024/01/08 01:14:40;;;;;;;;;;;;;;;-3.41;100.00;96764.19;5086841;28;19943;-73
2024/01/08 01:17:06;;;;;;;;;;;;;;;-3.41;100.00;96765.00;5086631;28;19978;-69
2024/01/08 01:19:32;;;;;;;;;;;;;;;-3.42;100.00;96754.84;5085940;28;20256;-69
2024/01/08 01:21:58;;;;;;;;;;;;;;;-3.39;100.00;96768.25;5087329;28;20078;-69
2024/01/08 01:24:24;;;;;;;;;;;;;;;-3.39;100.00;96758.00;5086435;28;19971;-69
2024/01/08 01:26:50;;;;;;;;;;;;;;;-3.36;100.00;96764.63;5087210;28;19941;-69
2024/01/08 01:29:16;;;;;;;;;;;;;;;-3.38;100.00;96763.94;5086840;28;19965;-68
2024/01/08 01:31:42;;;;;;;;;;;;;;;-3.41;100.00;96757.31;5086288;28;19937;-69
2024/01/08 01:34:10;;;;;;;;;;;;;;;-3.43;100.00;96753.25;5086276;28;19944;-89
2024/01/08 01:36:36;;;;;;;;;;;;;;;-3.40;100.00;96769.19;5085144;28;19941;-73
2024/01/08 01:39:04;;;;;;;;;;;;;;;-3.39;100.00;96770.00;5086098;28;19954;-69
2024/01/08 01:41:33;;;;;;;;;;;;;;;-3.37;100.00;96771.50;5086911;28;19947;-69
2024/01/08 01:43:59;;;;;;;;;;;;;;;-3.35;100.00;96772.19;5086062;28;19938;-68
2024/01/08 01:46:42;;;;;;;;;;;;;;;-3.34;100.00;96773.84;5086001;28;19939;-68
2024/01/08 01:49:10;;;;;;;;;;;;;;;-3.35;100.00;96774.78;5086477;28;19933;-69
2024/01/08 01:51:36;;;;;;;;;;;;;;;-3.38;100.00;96767.34;5085944;28;20016;-68
2024/01/08 01:54:02;;;;;;;;;;;;;;;-3.39;100.00;96772.56;5085883;28;19943;-74
2024/01/08 01:56:28;;;;;;;;;;;;;;;-3.38;100.00;96776.75;5084996;28;20133;-87
2024/01/08 01:58:54;;;;;;;;;;;;;;;-3.42;100.00;96762.53;5085823;28;19956;-88
2024/01/08 02:01:21;;;;;;;;;;;;;;;-3.46;100.00;96777.38;5086541;28;19935;-88
2024/01/08 02:03:47;;;;;;;;;;;;;;;-3.44;100.00;96774.69;5085840;28;19945;-87
2024/01/08 02:06:16;;;;;;;;;;;;;;;-3.43;100.00;96766.06;5085701;28;20232;-80
2024/01/08 02:08:42;;;;;;;;;;;;;;;-3.44;100.00;96767.81;5085867;28;19951;-85
2024/01/08 02:11:08;;;;;;;;;;;;;;;-3.42;100.00;96771.06;5085326;28;20041;-80
2024/01/08 02:13:33;;;;;;;;;;;;;;;-3.44;100.00;96752.44;5085499;28;19951;-68
2024/01/08 02:15:59;;;;;;;;;;;;;;;-3.45;100.00;96760.25;5086180;28;19939;-70
2024/01/08 02:18:25;;;;;;;;;;;;;;;-3.48;100.00;96741.59;5085268;28;19961;-70
2024/01/08 02:20:51;;;;;;;;;;;;;;;-3.49;100.00;96749.41;5085286;28;19946;-71
2024/01/08 02:23:17;;;;;;;;;;;;;;;-3.49;100.00;96754.53;5085255;28;19940;-70
2024/01/08 02:25:42;;;;;;;;;;;;;;;-3.48;100.00;96745.94;5084275;28;19937;-71
2024/01/08 02:28:08;;;;;;;;;;;;;;;-3.49;100.00;96750.22;5085233;28;19949;-70
2024/01/08 02:30:34;;;;;;;;;;;;;;;-3.50;100.00;96737.53;5085133;28;19940;-70
2024/01/08 02:33:00;;;;;;;;;;;;;;;-3.50;100.00;96742.66;5083996;28;19935;-73
2024/01/08 02:35:26;;;;;;;;;;;;;;;-3.49;100.00;96747.66;5084606;28;19949;-72
2024/01/08 02:37:52;;;;;;;;;;;;;;;-3.45;100.00;96755.13;5084859;28;19972;-72
2024/01/08 02:40:17;;;;;;;;;;;;;;;-3.43;100.00;96751.47;5085665;28;20246;-72
2024/01/08 02:42:43;;;;;;;;;;;;;;;-3.43;100.00;96746.34;5084811;28;19948;-72
2024/01/08 02:45:09;;;;;;;;;;;;;;;-3.42;100.00;96750.56;5084796;28;19948;-72
2024/01/08 02:47:37;;;;;;;;;;;;;;;-3.40;100.00;96751.25;5084785;28;19939;-68
2024/01/08 02:50:05;;;;;;;;;;;;;;;-3.39;100.00;96750.31;5084726;28;19945;-74
2024/01/08 02:52:31;;;;;;;;;;;;;;;-3.39;100.00;96739.25;5084649;28;19933;-72
2024/01/08 02:54:57;;;;;;;;;;;;;;;-3.43;100.00;96737.84;5085078;28;19943;-73
2024/01/08 02:57:25;;;;;;;;;;;;;;;-3.43;100.00;96753.25;5084591;28;19961;-73
2024/01/08 02:59:51;;;;;;;;;;;;;;;-3.42;100.00;96749.72;5084458;28;19957;-73
2024/01/08 03:02:16;;;;;;;;;;;;;;;-3.42;100.00;96757.41;5084472;28;19940;-73
2024/01/08 03:04:42;;;;;;;;;;;;;;;-3.40;100.00;96764.06;5084505;28;19936;-73
2024/01/08 03:07:10;;;;;;;;;;;;;;;-3.37;100.00;96760.44;5084456;28;20245;-75
2024/01/08 03:09:36;;;;;;;;;;;;;;;-3.37;100.00;96765.56;5083009;28;19969;-74
2024/01/08 03:12:02;;;;;;;;;;;;;;;-3.36;100.00;96757.75;5084356;28;19943;-76
2024/01/08 03:14:28;;;;;;;;;;;;;;;-3.37;100.00;96755.31;5084317;28;19936;-75
2024/01/08 03:16:53;;;;;;;;;;;;;;;-3.39;100.00;96763.13;5084275;28;19939;-74
2024/01/08 03:19:19;;;;;;;;;;;;;;;-3.38;100.00;96749.38;5084760;28;19958;-75
2024/01/08 03:21:45;;;;;;;;;;;;;;;-3.40;100.00;96750.41;5085036;28;19939;-76
2024/01/08 03:24:11;;;;;;;;;;;;;;;-3.38;100.00;96767.34;5084191;28;19933;-67
2024/01/08 03:26:37;;;;;;;;;;;;;;;-3.40;100.00;96758.94;5084222;28;19936;-72
2024/01/08 03:29:03;;;;;;;;;;;;;;;-3.38;100.00;96758.81;5084081;28;19946;-72
2024/01/08 03:31:29;;;;;;;;;;;;;;;-3.37;100.00;96755.31;5084119;28;19936;-72
2024/01/08 03:33:55;;;;;;;;;;;;;;;-3.37;100.00;96751.00;5084104;28;19966;-71
2024/01/08 03:36:21;;;;;;;;;;;;;;;-3.36;100.00;96767.19;5084063;28;19947;-72
2024/01/08 03:38:47;;;;;;;;;;;;;;;-3.34;100.00;96755.91;5083995;28;19989;-70
2024/01/08 03:41:13;;;;;;;;;;;;;;;-3.30;100.00;96761.56;5083971;28;19941;-71
2024/01/08 03:43:38;;;;;;;;;;;;;;;-3.30;100.00;96766.69;5084414;28;19944;-82
2024/01/08 03:46:04;;;;;;;;;;;;;;;-3.29;100.00;96760.66;5084444;28;19945;-69
2024/01/08 03:48:30;;;;;;;;;;;;;;;-3.27;100.00;96771.59;5083927;28;19942;-68
2024/01/08 03:50:56;;;;;;;;;;;;;;;-3.23;100.00;96765.28;5082743;28;20044;-69
2024/01/08 03:53:22;;;;;;;;;;;;;;;-3.27;100.00;96743.38;5083828;28;19941;-69
2024/01/08 03:55:48;;;;;;;;;;;;;;;-3.30;100.00;96756.44;5083847;28;19938;-69
2024/01/08 03:58:14;;;;;;;;;;;;;;;-3.31;100.00;96753.06;5084273;28;19950;-68
2024/01/08 04:00:40;;;;;;;;;;;;;;;-3.35;100.00;96756.81;5083838;28;20000;-69
2024/01/08 04:03:05;;;;;;;;;;;;;;;-3.33;100.00;96772.09;5083807;28;19948;-70
2024/01/08 04:05:31;;;;;;;;;;;;;;;-3.31;100.00;96765.09;5083581;28;20257;-75
2024/01/08 04:07:57;;;;;;;;;;;;;;;-3.27;100.00;96758.78;5083718;28;19986;-75
2024/01/08 04:10:23;;;;;;;;;;;;;;;-3.26;100.00;96761.19;5083468;28;19970;-76
2024/01/08 04:12:49;;;;;;;;;;;;;;;-3.22;100.00;96766.91;5084259;28;20221;-77
2024/01/08 04:15:15;;;;;;;;;;;;;;;-3.21;100.00;96763.41;5084176;28;19944;-75
2024/01/08 04:17:41;;;;;;;;;;;;;;;-3.17;100.00;96763.94;5083622;28;19950;-75
2024/01/08 04:20:08;;;;;;;;;;;;;;;-3.19;100.00;96761.53;5084301;28;19962;-77
2024/01/08 04:22:33;;;;;;;;;;;;;;;-3.19;100.00;96768.41;5084112;28;19940;-73
2024/01/08 04:24:59;;;;;;;;;;;;;;;-3.21;100.00;96762.56;5083543;28;19933;-73
2024/01/08 04:27:25;;;;;;;;;;;;;;;-3.22;100.00;96758.41;5084352;28;19937;-73
2024/01/08 04:29:51;;;;;;;;;;;;;;;-3.24;100.00;96747.44;5083508;28;20272;-73
2024/01/08 04:32:17;;;;;;;;;;;;;;;-3.25;100.00;96756.91;5083464;28;19942;-73
2024/01/08 04:34:42;;;;;;;;;;;;;;;-3.25;100.00;96756.91;5083514;28;20220;-73
2024/01/08 04:37:09;;;;;;;;;;;;;;;-3.26;100.00;96760.38;5083089;28;19943;-73
2024/01/08 04:39:35;;;;;;;;;;;;;;;-3.27;100.00;96758.78;5083388;28;19954;-71
2024/01/08 04:42:01;;;;;;;;;;;;;;;-3.26;100.00;96770.66;5084196;28;19946;-70
2024/01/08 04:44:27;;;;;;;;;;;;;;;-3.25;100.00;96764.59;5082845;28;19935;-71
2024/01/08 04:46:53;;;;;;;;;;;;;;;-3.27;100.00;96769.03;5084173;28;19937;-71
2024/01/08 04:49:21;;;;;;;;;;;;;;;-3.29;100.00;96758.09;5084315;28;19952;-71
2024/01/08 04:51:49;;;;;;;;;;;;;;;-3.31;100.00;96768.44;5087837;28;19941;-71
2024/01/08 04:54:16;;;;;;;;;;;;;;;-3.32;100.00;96745.50;5087482;28;20115;-71
2024/01/08 04:56:42;;;;;;;;;;;;;;;-3.35;100.00;96774.78;5086947;28;19957;-69
2024/01/08 04:59:08;;;;;;;;;;;;;;;-3.32;100.00;96779.66;5086800;28;19959;-71
2024/01/08 05:01:37;;;;;;;;;;;;;;;-3.32;100.00;96784.78;5087387;28;19936;-68
2024/01/08 05:04:03;;;;;;;;;;;;;;;-3.35;100.00;96777.34;5087335;28;19936;-69
2024/01/08 05:06:29;;;;;;;;;;;;;;;-3.33;100.00;96784.91;5086809;28;19997;-68
2024/01/08 05:08:55;;;;;;;;;;;;;;;-3.34;100.00;96778.13;5086439;28;20029;-69
2024/01/08 05:11:21;;;;;;;;;;;;;;;-3.38;100.00;96754.50;5087473;28;20225;-68
2024/01/08 05:13:47;;;;;;;;;;;;;;;-3.41;100.00;96764.19;5086642;28;20249;-69
2024/01/08 05:16:13;;;;;;;;;;;;;;;-3.44;100.00;96766.97;5086616;28;19941;-71
2024/01/08 05:18:40;;;;;;;;;;;;;;;-3.42;100.00;96783.06;5086525;28;20250;-73
2024/01/08 05:21:06;;;;;;;;;;;;;;;-3.39;100.00;96790.53;5086468;28;20121;-74
2024/01/08 05:23:33;;;;;;;;;;;;;;;-3.39;100.00;96785.41;5086982;28;19942;-74
2024/01/08 05:25:59;;;;;;;;;;;;;;;-3.45;100.00;96779.00;5086409;28;19935;-74
2024/01/08 05:28:26;;;;;;;;;;;;;;;-3.47;100.00;96780.88;5087172;28;19936;-75
2024/01/08 05:30:52;;;;;;;;;;;;;;;-3.44;100.00;96803.72;5086326;28;19958;-74
2024/01/08 05:33:18;;;;;;;;;;;;;;;-3.47;100.00;96776.53;5086775;28;19938;-71
2024/01/08 05:35:44;;;;;;;;;;;;;;;-3.42;100.00;96789.03;5086271;28;19956;-84
2024/01/08 05:38:10;;;;;;;;;;;;;;;-3.40;100.00;96805.09;5086973;28;20001;-70
2024/01/08 05:40:36;;;;;;;;;;;;;;;-3.35;100.00;96804.72;5086084;28;20027;-70
2024/01/08 05:43:03;;;;;;;;;;;;;;;-3.37;100.00;96792.03;5086641;28;19944;-70
2024/01/08 05:45:30;;;;;;;;;;;;;;;-3.36;100.00;96791.09;5086021;28;19944;-70
2024/01/08 05:47:56;;;;;;;;;;;;;;;-3.34;100.00;96796.09;5086000;28;19935;-70
2024/01/08 05:50:27;;;;;;;;;;;;;;;-3.32;100.00;96799.34;5085899;28;19935;-69
2024/01/08 05:52:54;;;;;;;;;;;;;;;-3.34;100.00;96784.09;5085932;28;20248;-74
2024/01/08 05:55:20;;;;;;;;;;;;;;;-3.34;100.00;96788.41;5084632;28;19941;-69
2024/01/08 05:57:46;;;;;;;;;;;;;;;-3.35;100.00;96789.34;5085784;28;19935;-69
2024/01/08 06:00:12;;;;;;;;;;;;;;;-3.39;100.00;96787.97;5086051;28;19957;-69
2024/01/08 06:02:38;;;;;;;;;;;;;;;-3.41;100.00;96795.78;5085683;28;19940;-69
2024/01/08 06:05:04;;;;;;;;;;;;;;;-3.42;100.00;96788.19;5085631;28;19961;-69
2024/01/08 06:07:30;;;;;;;;;;;;;;;-3.39;100.00;96798.22;5086032;28;19992;-69
2024/01/08 06:09:56;;;;;;;;;;;;;;;-3.38;100.00;96813.50;5085414;28;20129;-74
2024/01/08 06:12:22;;;;;;;;;;;;;;;-3.39;100.00;96819.53;5085530;28;20229;-75
2024/01/08 06:14:49;;;;;;;;;;;;;;;-3.37;100.00;96812.53;5085685;28;19948;-76
2024/01/08 06:17:14;;;;;;;;;;;;;;;-3.35;100.00;96817.56;5085874;28;19942;-75
2024/01/08 06:19:41;;;;;;;;;;;;;;;-3.32;100.00;96813.00;5085524;28;20032;-75
2024/01/08 06:22:07;;;;;;;;;;;;;;;-3.33;100.00;96821.63;5085233;28;19939;-76
2024/01/08 06:24:32;;;;;;;;;;;;;;;-3.31;100.00;96816.38;5085238;28;20007;-75
2024/01/08 06:26:58;;;;;;;;;;;;;;;-3.30;100.00;96813.69;5085202;28;19949;-75
2024/01/08 06:29:24;;;;;;;;;;;;;;;-3.30;100.00;96810.28;5085108;28;19941;-70
2024/01/08 06:31:50;;;;;;;;;;;;;;;-3.29;100.00;96819.63;5085664;28;19943;-69
2024/01/08 06:34:16;;;;;;;;;;;;;;;-3.32;100.00;96804.47;5085314;28;19943;-69
2024/01/08 06:36:42;;;;;;;;;;;;;;;-3.38;100.00;96798.09;5085009;28;19939;-68
2024/01/08 06:39:10;;;;;;;;;;;;;;;-3.43;100.00;96817.34;5084884;28;20229;-70
2024/01/08 06:41:37;;;;;;;;;;;;;;;-3.42;100.00;96824.94;5084925;28;19946;-68
2024/01/08 06:44:03;;;;;;;;;;;;;;;-3.42;100.00;96829.22;5083763;28;20261;-68
2024/01/08 06:46:28;;;;;;;;;;;;;;;-3.39;100.00;96829.00;5084736;28;19942;-78
2024/01/08 06:48:54;;;;;;;;;;;;;;;-3.35;100.00;96831.19;5084842;28;19935;-76
2024/01/08 06:51:20;;;;;;;;;;;;;;;-3.28;100.00;96826.38;5084322;28;20182;-74
2024/01/08 06:53:47;;;;;;;;;;;;;;;-3.24;100.00;96835.44;5084710;28;20008;-75
2024/01/08 06:56:13;;;;;;;;;;;;;;;-3.24;100.00;96824.38;5085050;28;20212;-74
2024/01/08 06:58:38;;;;;;;;;;;;;;;-3.22;100.00;96831.03;5084279;28;19948;-74
2024/01/08 07:01:06;;;;;;;;;;;;;;;-3.22;100.00;96828.44;5082967;28;20217;-75
2024/01/08 07:03:32;;;;;;;;;;;;;;;-3.29;100.00;96817.88;5084500;28;19939;-74
2024/01/08 07:05:59;;;;;;;;;;;;;;;-3.36;100.00;96814.19;5084763;28;20008;-72
2024/01/08 07:08:24;;;;;;;;;;;;;;;-3.48;100.00;96807.47;5084402;28;19958;-76
2024/01/08 07:10:51;;;;;;;;;;;;;;;-3.54;100.00;96836.94;5083204;28;19974;-75
2024/01/08 07:13:17;;;;;;;;;;;;;;;-3.56;100.00;96822.63;5083847;28;19947;-75
2024/01/08 07:15:46;;;;;;;;;;;;;;;-3.55;100.00;96837.91;5084293;28;19938;-75
2024/01/08 07:18:11;;;;;;;;;;;;;;;-3.55;100.00;96819.94;5084312;28;19954;-75
2024/01/08 07:20:38;;;;;;;;;;;;;;;-3.57;100.00;96810.72;5084236;28;19963;-75
2024/01/08 07:23:05;;;;;;;;;;;;;;;-3.57;100.00;96820.97;5084839;28;20215;-75
2024/01/08 07:25:31;;;;;;;;;;;;;;;-3.56;100.00;96828.56;5084236;28;19949;-71
2024/01/08 07:27:58;;;;;;;;;;;;;;;-3.52;100.00;96829.13;5084135;28;19945;-68
2024/01/08 07:30:24;;;;;;;;;;;;;;;-3.53;100.00;96804.44;5084114;28;19943;-68
2024/01/08 07:32:50;;;;;;;;;;;;;;;-3.50;100.00;96817.03;5084135;28;19973;-69
2024/01/08 07:35:16;;;;;;;;;;;;;;;-3.46;100.00;96828.66;5084044;28;19936;-69
2024/01/08 07:37:41;;;;;;;;;;;;;;;-3.45;100.00;96814.09;5084116;28;20060;-69
2024/01/08 07:40:07;;;;;;;;;;;;;;;-3.48;100.00;96805.69;5083907;28;20014;-69
2024/01/08 07:42:33;;;;;;;;;;;;;;;-3.53;100.00;96771.09;5083993;28;19993;-68
2024/01/08 07:44:59;;;;;;;;;;;;;;;-3.57;100.00;96815.84;5083989;28;19943;-75
2024/01/08 07:47:26;;;;;;;;;;;;;;;-3.57;100.00;96826.94;5083969;28;19943;-70
2024/01/08 07:49:51;;;;;;;;;;;;;;;-3.55;100.00;96837.06;5083940;28;19943;-70
2024/01/08 07:52:17;;;;;;;;;;;;;;;-3.55;100.00;96837.91;5084676;28;19941;-70
2024/01/08 07:54:43;;;;;;;;;;;;;;;-3.59;100.00;96810.88;5083925;28;20010;-70
2024/01/08 07:57:09;;;;;;;;;;;;;;;-3.61;100.00;96825.56;5083855;28;19931;-71
2024/01/08 07:59:35;;;;;;;;;;;;;;;-3.61;100.00;96846.06;5083747;28;19956;-70
2024/01/08 08:02:00;;;;;;;;;;;;;;;-3.57;100.00;96833.78;5083800;28;19938;-69
2024/01/08 08:04:27;;;;;;;;;;;;;;;-3.56;100.00;96826.00;5083760;28;19972;-70
2024/01/08 08:06:53;;;;;;;;;;;;;;;-3.56;100.00;96841.38;5083782;28;20218;-69
2024/01/08 08:09:19;;;;;;;;;;;;;;;-3.53;100.00;96812.13;5083562;28;19967;-69
2024/01/08 08:11:45;;;;;;;;;;;;;;;-3.49;100.00;96849.41;5083745;28;19946;-69
2024/01/08 08:14:12;;;;;;;;;;;;;;;-3.54;100.00;96831.00;5084459;28;19936;-68
2024/01/08 08:16:39;;;;;;;;;;;;;;;-3.52;100.00;96841.97;5083902;28;19946;-69
2024/01/08 08:19:05;;;;;;;;;;;;;;;-3.49;100.00;96846.84;5083547;28;19934;-71
2024/01/08 08:21:32;;;;;;;;;;;;;;;-3.41;100.00;96859.06;5082851;28;20001;-74
2024/01/08 08:23:58;;;;;;;;;;;;;;;-3.37;100.00;96839.94;5084341;28;20234;-75
2024/01/08 08:26:25;;;;;;;;;;;;;;;-3.35;100.00;96848.31;5087539;28;19945;-75
2024/01/08 08:28:52;;;;;;;;;;;;;;;-3.31;100.00;96854.84;5087491;28;19956;-75
2024/01/08 08:31:17;;;;;;;;;;;;;;;-3.34;100.00;96837.13;5087385;28;19941;-75
2024/01/08 08:33:43;;;;;;;;;;;;;;;-3.35;100.00;96861.16;5087374;28;20323;-74
2024/01/08 08:36:09;;;;;;;;;;;;;;;-3.34;100.00;96852.50;5087297;28;19943;-76
2024/01/08 08:38:36;;;;;;;;;;;;;;;-3.36;100.00;96841.56;5087390;28;19936;-72
2024/01/08 08:41:02;;;;;;;;;;;;;;;-3.41;100.00;96846.25;5085972;28;19960;-69
2024/01/08 08:43:30;;;;;;;;;;;;;;;-3.43;100.00;96858.38;5087730;28;19939;-69
2024/01/08 08:45:56;;;;;;;;;;;;;;;-3.42;100.00;96847.16;5087185;28;19934;-68
2024/01/08 08:48:22;;;;;;;;;;;;;;;-3.40;100.00;96850.41;5087105;28;20112;-68
2024/01/08 08:50:48;;;;;;;;;;;;;;;-3.40;100.00;96846.13;5087891;28;20019;-69
2024/01/08 08:53:14;;;;;;;;;;;;;;;-3.11;100.00;96874.59;5085940;28;19939;-70
2024/01/08 08:55:39;;;;;;;;;;;;;;;-3.02;100.00;96828.59;5087055;28;19934;-74
2024/01/08 08:58:09;;;;;;;;;;;;;;;-3.07;100.00;96811.00;5086798;28;19941;-69
2024/01/08 09:00:37;;;;;;;;;;;;;;;-3.13;100.00;96840.56;5086764;28;19958;-71
2024/01/08 09:03:03;;;;;;;;;;;;;;;-3.23;100.00;96844.78;5086816;28;19939;-71
2024/01/08 09:05:30;;;;;;;;;;;;;;;-3.37;100.00;96804.84;5087523;28;20090;-71
2024/01/08 09:07:56;;;;;;;;;;;;;;;-3.45;100.00;96808.97;5086123;28;19955;-72
2024/01/08 09:10:22;;;;;;;;;;;;;;;-3.55;100.00;96812.25;5085380;28;19967;-71
2024/01/08 09:12:48;;;;;;;;;;;;;;;-3.56;100.00;96836.25;5086631;28;19945;-72
2024/01/08 09:15:14;;;;;;;;;;;;;;;-3.48;100.00;96856.97;5087101;28;19935;-73
2024/01/08 09:17:40;;;;;;;;;;;;;;;-3.38;100.00;96851.94;5087371;28;19937;-74
2024/01/08 09:20:09;;;;;;;;;;;;;;;-3.29;100.00;96850.41;5086912;28;19952;-74
2024/01/08 09:22:35;;;;;;;;;;;;;;;-3.04;100.00;96830.47;5086409;28;19956;-74
2024/01/08 09:25:01;;;;;;;;;;;;;;;-3.01;100.00;96854.13;5086468;28;19939;-74
2024/01/08 09:27:27;;;;;;;;;;;;;;;-2.97;100.00;96864.97;5086301;28;19939;-75
2024/01/08 09:29:53;;;;;;;;;;;;;;;-2.95;100.00;96850.28;5086304;28;20129;-78
2024/01/08 09:32:19;;;;;;;;;;;;;;;-2.84;100.00;96854.53;5086208;28;19943;-69
2024/01/08 09:34:45;;;;;;;;;;;;;;;-2.87;100.00;96838.44;5085838;28;19934;-69
2024/01/08 09:37:11;;;;;;;;;;;;;;;-2.90;100.00;96848.97;5086082;28;19941;-73
2024/01/08 09:39:37;;;;;;;;;;;;;;;-2.98;100.00;96868.47;5086336;28;19954;-73
2024/01/08 09:42:03;;;;;;;;;;;;;;;-3.08;100.00;96868.41;5085982;28;19938;-71
2024/01/08 09:44:31;;;;;;;;;;;;;;;-3.17;100.00;96841.75;5085968;28;20352;-73
2024/01/08 09:46:57;;;;;;;;;;;;;;;-3.34;100.00;96876.41;5085922;28;19943;-73
2024/01/08 09:49:23;;;;;;;;;;;;;;;-3.48;100.00;96823.66;5086366;28;19940;-73
2024/01/08 09:51:49;;;;;;;;;;;;;;;-3.52;100.00;96847.09;5085921;28;19941;-73
2024/01/08 09:54:20;;;;;;;;;;;;;;;-3.54;100.00;96849.75;5085786;28;19937;-71
2024/01/08 09:56:50;;;;;;;;;;;;;;;-3.57;100.00;96877.38;5086359;28;19945;-71
2024/01/08 09:59:16;;;;;;;;;;;;;;;-3.50;100.00;96881.13;5085611;28;19949;-71
2024/01/08 10:01:43;;;;;;;;;;;;;;;-3.53;100.00;96838.59;5085336;28;20226;-71
2024/01/08 10:04:09;;;;;;;;;;;;;;;-3.52;100.00;96857.34;5085637;28;19934;-72
2024/01/08 10:06:35;;;;;;;;;;;;;;;-3.46;100.00;96890.19;5085581;28;19934;-71
2024/01/08 10:09:00;;;;;;;;;;;;;;;-3.36;100.00;96882.59;5085453;28;20259;-75
2024/01/08 10:11:26;;;;;;;;;;;;;;;-3.28;100.00;96881.03;5085844;28;19964;-73
2024/01/08 10:13:52;;;;;;;;;;;;;;;-3.22;100.00;96876.38;5085474;28;20169;-74
2024/01/08 10:16:18;;;;;;;;;;;;;;;-3.14;100.00;96863.75;5085316;28;19962;-74
2024/01/08 10:18:45;;;;;;;;;;;;;;;-3.11;100.00;96873.78;5086153;28;19943;-74
2024/01/08 10:21:12;;;;;;;;;;;;;;;-3.12;100.00;96869.59;5085213;28;19954;-75
2024/01/08 10:23:38;;;;;;;;;;;;;;;-3.14;100.00;96854.31;5085248;28;19940;-74
2024/01/08 10:26:04;;;;;;;;;;;;;;;-3.14;100.00;96861.19;5085496;28;19947;-74
2024/01/08 10:28:35;;;;;;;;;;;;;;;-3.13;100.00;96875.63;5085104;28;19943;-73
2024/01/08 10:31:05;;;;;;;;;;;;;;;-3.09;100.00;96877.88;5085075;28;19939;-87
2024/01/08 10:33:31;;;;;;;;;;;;;;;-3.07;100.00;96852.06;5085092;28;19952;-87
2024/01/08 10:35:59;;;;;;;;;;;;;;;-3.08;100.00;96860.72;5085075;28;20130;-87
2024/01/08 10:38:25;;;;;;;;;;;;;;;-3.06;100.00;96863.97;5084955;28;19934;-76
2024/01/08 10:40:51;;;;;;;;;;;;;;;-2.18;100.00;96946.75;5084856;28;19951;-77
2024/01/08 10:43:17;;;;;;;;;;;;;;;-1.48;100.00;96928.00;5085012;28;19933;-78
2024/01/08 10:45:43;;;;;;;;;;;;;;;-1.56;100.00;96873.84;5084848;28;19977;-79
2024/01/08 10:48:16;;;;;;;;;;;;;;;-1.86;100.00;96849.78;5084026;28;19934;-77
2024/01/08 10:50:45;;;;;;;;;;;;;;;-2.15;100.00;96885.66;5085432;28;20224;-73
2024/01/08 10:53:14;;;;;;;;;;;;;;;-2.31;100.00;96893.81;5084645;28;20204;-73
2024/01/08 10:55:41;;;;;;;;;;;;;;;-2.44;100.00;96895.75;5084591;28;19939;-73
2024/01/08 10:58:08;;;;;;;;;;;;;;;-2.64;100.00;96858.88;5084578;28;19942;-73
2024/01/08 11:00:35;;;;;;;;;;;;;;;-2.40;100.00;96894.56;5084677;28;20039;-72
2024/01/08 11:03:01;;;;;;;;;;;;;;;-1.79;100.00;96937.50;5085269;28;19943;-74
2024/01/08 11:05:28;;;;;;;;;;;;;;;-1.25;100.00;96806.88;5084450;28;19935;-68
2024/01/08 11:07:55;;;;;;;;;;;;;;;-1.33;100.00;96846.13;5084332;28;19981;-79
2024/01/08 11:10:24;;;;;;;;;;;;;;;-1.69;100.00;96832.13;5084418;28;19970;-78
2024/01/08 11:12:51;;;;;;;;;;;;;;;-1.92;100.00;96844.38;5084275;28;19937;-78
2024/01/08 11:15:17;;;;;;;;;;;;;;;-2.19;98.61;96791.78;5084719;28;20107;-78
2024/01/08 11:17:52;;;;;;;;;;;;;;;-2.44;100.00;96834.13;5083902;28;19942;-78
2024/01/08 11:20:38;;;;;;;;;;;;;;;-2.74;98.81;96814.34;5083538;28;20235;-79
2024/01/08 11:23:04;;;;;;;;;;;;;;;-2.99;100.00;96844.56;5084213;28;20029;-76
2024/01/08 11:25:30;;;;;;;;;;;;;;;-3.21;98.75;96813.88;5084098;28;19971;-69
2024/01/08 11:27:58;;;;;;;;;;;;;;;-3.33;100.00;96841.31;5084929;28;19941;-73
2024/01/08 11:30:24;;;;;;;;;;;;;;;-3.37;100.00;96851.00;5084342;28;19939;-72
2024/01/08 11:33:29;;;;;;;;;;;;;;;-3.36;100.00;96877.44;5084095;28;19939;-73
2024/01/08 11:35:59;;;;;;;;;;;;;;;-3.42;100.00;96827.50;5022558;28;19938;-73
2024/01/08 11:38:28;;;;;;;;;;;;;;;-3.48;100.00;96823.66;5022415;28;19940;-73
2024/01/08 11:40:54;;;;;;;;;;;;;;;-3.45;100.00;96884.13;5054045;28;19963;-72
2024/01/08 11:43:21;;;;;;;;;;;;;;;-3.34;100.00;96862.75;5083926;28;19935;-73
2024/01/08 11:45:47;;;;;;;;;;;;;;;-3.21;100.00;96870.31;5083878;28;19935;-78
2024/01/08 11:48:13;;;;;;;;;;;;;;;-3.16;100.00;96833.09;5083888;28;19935;-79
2024/01/08 11:50:42;;;;;;;;;;;;;;;-3.06;100.00;96864.78;5083877;28;19942;-78
2024/01/08 11:53:11;;;;;;;;;;;;;;;-3.11;100.00;96836.13;5083833;28;19948;-78
2024/01/08 11:55:37;;;;;;;;;;;;;;;-3.06;100.00;96861.41;5083848;28;19942;-78
2024/01/08 11:58:03;;;;;;;;;;;;;;;-2.97;100.00;96858.09;5084990;28;19942;-78
2024/01/08 12:00:29;;;;;;;;;;;;;;;-2.89;100.00;96853.16;5090340;28;19957;-69
2024/01/08 12:03:02;;;;;;;;;;;;;;;-2.86;100.00;96854.66;5091240;28;19938;-70
2024/01/08 12:05:28;;;;;;;;;;;;;;;-2.82;100.00;96865.50;5090360;28;19958;-69
2024/01/08 12:07:54;;;;;;;;;;;;;;;-2.80;100.00;96850.78;5090984;28;20275;-69
2024/01/08 12:10:20;;;;;;;;;;;;;;;-2.74;100.00;96850.28;5090168;28;19969;-69
2024/01/08 12:12:46;;;;;;;;;;;;;;;-2.67;100.00;96875.34;5089995;28;19946;-69
2024/01/08 12:15:12;;;;;;;;;;;;;;;-2.67;100.00;96847.13;5089227;28;19947;-70
2024/01/08 12:17:38;;;;;;;;;;;;;;;-2.71;100.00;96843.16;5090259;28;19959;-69
2024/01/08 12:20:05;;;;;;;;;;;;;;;-2.70;100.00;96851.69;5090966;28;20036;-72
2024/01/08 12:22:31;;;;;;;;;;;;;;;-2.68;100.00;96844.66;5090185;28;19934;-73
2024/01/08 12:24:58;;;;;;;;;;;;;;;-2.68;100.00;96858.31;5091000;28;19937;-73
2024/01/08 12:27:25;;;;;;;;;;;;;;;-2.67;100.00;96851.41;5090207;28;19958;-72
2024/01/08 12:29:54;;;;;;;;;;;;;;;-2.71;100.00;96845.72;5090218;28;19940;-73
2024/01/08 12:32:21;;;;;;;;;;;;;;;-2.72;100.00;96844.09;5090154;28;20219;-73
2024/01/08 12:34:47;;;;;;;;;;;;;;;-2.67;100.00;96853.97;5090212;28;19942;-72